Lone Pine, Idaho
Current Conditions -  °F | °C
As of 12:55 AM on Sunday 26 Oct 2014 (Local Time) from KLLJ Reporting Station
Broken Clouds Broken Clouds  
Wind Chill: 44°   Ceiling: 6500
Heat Index: 48°   Visibility: 10mi
Dew Point: 36°   Wind: 8mph
Humidity: 63%   Direction: 180°S
Pressure: 29.86"   Gusts: NA
Location:  44.5987°N, 113.355°W
Report Text: KLLJ 260655Z AUTO 18007KT 10SM BKN065 09/02 A2986 RMK AO2 SLP083 T00890022 401941028
Loading
Personal Weather Stations






























Interactive Weather Map
Tropical Storm Tracking
New forecast layout! Learn more

10-Day Weather Forecast

Advertisements
Track Severe Weather on mobile